sensor_id;sensor_type;location;lat;lon;timestamp;pressure;altitude;pressure_sealevel;temperature;humidity
45763;BME280;37512;52.408;13.356;2022-08-05T00:01:17;100535.06;;;25.53;49.42
45763;BME280;37512;52.408;13.356;2022-08-05T00:05:29;100527.31;;;25.53;49.44
45763;BME280;37512;52.408;13.356;2022-08-05T00:09:50;100529.50;;;24.62;51.62
45763;BME280;37512;52.408;13.356;2022-08-05T00:13:54;100519.34;;;25.02;51.03
45763;BME280;37512;52.408;13.356;2022-08-05T00:17:56;100514.94;;;25.01;51.17
45763;BME280;37512;52.408;13.356;2022-08-05T00:22:02;100520.38;;;24.05;54.25
45763;BME280;37512;52.408;13.356;2022-08-05T00:26:05;100511.66;;;24.53;53.50
45763;BME280;37512;52.408;13.356;2022-08-05T00:30:07;100508.56;;;24.69;52.59
45763;BME280;37512;52.408;13.356;2022-08-05T00:34:13;100508.28;;;24.86;51.06
45763;BME280;37512;52.408;13.356;2022-08-05T00:38:35;100503.22;;;24.80;52.64
45763;BME280;37512;52.408;13.356;2022-08-05T00:42:37;100514.25;;;24.78;52.62
45763;BME280;37512;52.408;13.356;2022-08-05T00:46:48;100515.03;;;24.07;54.30
45763;BME280;37512;52.408;13.356;2022-08-05T00:51:02;100522.16;;;24.43;53.23
45763;BME280;37512;52.408;13.356;2022-08-05T00:55:24;100550.81;;;23.70;55.35
45763;BME280;37512;52.408;13.356;2022-08-05T00:59:43;100542.81;;;23.55;54.07
45763;BME280;37512;52.408;13.356;2022-08-05T01:03:45;100531.88;;;23.67;55.04
45763;BME280;37512;52.408;13.356;2022-08-05T01:07:50;100533.19;;;23.53;55.73
45763;BME280;37512;52.408;13.356;2022-08-05T01:12:15;100534.47;;;23.74;54.66
45763;BME280;37512;52.408;13.356;2022-08-05T01:16:56;100546.03;;;23.45;55.86
45763;BME280;37512;52.408;13.356;2022-08-05T01:29:57;100547.56;;;23.24;58.44
45763;BME280;37512;52.408;13.356;2022-08-05T01:34:09;100568.44;;;22.66;61.77
45763;BME280;37512;52.408;13.356;2022-08-05T01:38:15;100530.56;;;23.24;61.18
45763;BME280;37512;52.408;13.356;2022-08-05T01:42:29;100544.09;;;23.07;63.27
45763;BME280;37512;52.408;13.356;2022-08-05T01:46:31;100526.59;;;23.34;63.25
45763;BME280;37512;52.408;13.356;2022-08-05T01:50:44;100544.31;;;23.12;64.69
45763;BME280;37512;52.408;13.356;2022-08-05T01:54:54;100532.28;;;23.21;64.71
45763;BME280;37512;52.408;13.356;2022-08-05T01:58:57;100541.84;;;23.02;65.46
45763;BME280;37512;52.408;13.356;2022-08-05T02:03:06;100526.78;;;23.39;64.39
45763;BME280;37512;52.408;13.356;2022-08-05T02:07:30;100525.88;;;23.43;64.11
45763;BME280;37512;52.408;13.356;2022-08-05T02:11:48;100530.28;;;23.44;64.60
45763;BME280;37512;52.408;13.356;2022-08-05T02:15:57;100512.06;;;23.45;64.67
45763;BME280;37512;52.408;13.356;2022-08-05T02:20:06;100527.66;;;23.14;66.00
45763;BME280;37512;52.408;13.356;2022-08-05T02:24:14;100521.09;;;23.52;64.86
45763;BME280;37512;52.408;13.356;2022-08-05T02:28:26;100527.13;;;23.07;66.78
45763;BME280;37512;52.408;13.356;2022-08-05T02:32:32;100527.50;;;23.31;66.35
45763;BME280;37512;52.408;13.356;2022-08-05T02:36:35;100535.50;;;23.45;65.76
45763;BME280;37512;52.408;13.356;2022-08-05T02:40:41;100535.59;;;22.94;67.64
45763;BME280;37512;52.408;13.356;2022-08-05T02:44:45;100530.81;;;23.16;67.77
45763;BME280;37512;52.408;13.356;2022-08-05T02:48:47;100528.50;;;23.37;66.17
45763;BME280;37512;52.408;13.356;2022-08-05T02:52:52;100533.09;;;22.96;67.64
45763;BME280;37512;52.408;13.356;2022-08-05T02:56:54;100518.09;;;23.34;66.22
45763;BME280;37512;52.408;13.356;2022-08-05T03:00:59;100519.13;;;23.27;66.50
45763;BME280;37512;52.408;13.356;2022-08-05T03:05:03;100521.25;;;23.36;65.78
45763;BME280;37512;52.408;13.356;2022-08-05T03:09:10;100512.84;;;23.45;65.63
45763;BME280;37512;52.408;13.356;2022-08-05T03:13:17;100513.28;;;23.44;65.23
45763;BME280;37512;52.408;13.356;2022-08-05T03:17:27;100500.97;;;23.37;65.54
45763;BME280;37512;52.408;13.356;2022-08-05T03:21:29;100498.38;;;23.30;65.82
45763;BME280;37512;52.408;13.356;2022-08-05T03:25:41;100498.13;;;23.15;66.21
45763;BME280;37512;52.408;13.356;2022-08-05T03:30:03;100486.34;;;23.39;65.26
45763;BME280;37512;52.408;13.356;2022-08-05T03:34:09;100494.25;;;23.22;65.44
45763;BME280;37512;52.408;13.356;2022-08-05T03:38:11;100500.69;;;23.23;65.74
45763;BME280;37512;52.408;13.356;2022-08-05T03:42:14;100511.34;;;23.18;65.79
45763;BME280;37512;52.408;13.356;2022-08-05T03:46:16;100511.94;;;23.13;65.64
45763;BME280;37512;52.408;13.356;2022-08-05T03:50:19;100518.78;;;23.38;64.62
45763;BME280;37512;52.408;13.356;2022-08-05T03:58:52;100510.28;;;23.38;64.85
45763;BME280;37512;52.408;13.356;2022-08-05T04:03:00;100521.13;;;23.39;65.75
45763;BME280;37512;52.408;13.356;2022-08-05T04:07:05;100531.94;;;23.19;66.04
45763;BME280;37512;52.408;13.356;2022-08-05T04:11:07;100529.16;;;23.41;65.57
45763;BME280;37512;52.408;13.356;2022-08-05T04:15:10;100516.81;;;23.48;65.53
45763;BME280;37512;52.408;13.356;2022-08-05T04:19:17;100502.31;;;23.46;66.19
45763;BME280;37512;52.408;13.356;2022-08-05T04:23:25;100503.16;;;23.55;65.76
45763;BME280;37512;52.408;13.356;2022-08-05T04:27:46;100508.75;;;23.24;66.93
45763;BME280;37512;52.408;13.356;2022-08-05T04:31:59;100523.75;;;23.34;65.59
45763;BME280;37512;52.408;13.356;2022-08-05T04:36:01;100539.56;;;23.44;65.36
45763;BME280;37512;52.408;13.356;2022-08-05T04:40:23;100552.41;;;23.36;66.20
45763;BME280;37512;52.408;13.356;2022-08-05T04:44:24;100553.09;;;23.62;65.39
45763;BME280;37512;52.408;13.356;2022-08-05T04:48:31;100554.78;;;23.94;64.99
45763;BME280;37512;52.408;13.356;2022-08-05T04:52:33;100548.59;;;24.09;64.44
45763;BME280;37512;52.408;13.356;2022-08-05T04:56:34;100538.22;;;24.15;64.93
45763;BME280;37512;52.408;13.356;2022-08-05T05:00:38;100546.66;;;24.28;64.07
45763;BME280;37512;52.408;13.356;2022-08-05T05:04:40;100545.25;;;24.32;64.37
45763;BME280;37512;52.408;13.356;2022-08-05T05:08:48;100545.69;;;24.53;64.07
45763;BME280;37512;52.408;13.356;2022-08-05T05:12:50;100549.78;;;24.52;64.13
45763;BME280;37512;52.408;13.356;2022-08-05T05:16:51;100555.81;;;24.32;64.38
45763;BME280;37512;52.408;13.356;2022-08-05T05:20:54;100558.53;;;24.45;64.13
45763;BME280;37512;52.408;13.356;2022-08-05T05:24:58;100566.50;;;24.50;63.76
45763;BME280;37512;52.408;13.356;2022-08-05T05:29:16;100578.72;;;24.47;64.16
45763;BME280;37512;52.408;13.356;2022-08-05T05:33:19;100617.94;;;24.61;64.16
45763;BME280;37512;52.408;13.356;2022-08-05T05:37:23;100613.97;;;24.58;64.43
45763;BME280;37512;52.408;13.356;2022-08-05T05:41:45;100606.00;;;24.75;64.13
45763;BME280;37512;52.408;13.356;2022-08-05T05:45:54;100588.41;;;24.90;63.57
45763;BME280;37512;52.408;13.356;2022-08-05T05:49:57;100598.47;;;24.81;64.15
45763;BME280;37512;52.408;13.356;2022-08-05T05:54:04;100617.06;;;24.82;63.97
45763;BME280;37512;52.408;13.356;2022-08-05T05:58:11;100650.06;;;24.58;64.80
45763;BME280;37512;52.408;13.356;2022-08-05T06:02:14;100680.16;;;24.55;64.94
45763;BME280;37512;52.408;13.356;2022-08-05T06:06:17;100657.56;;;24.52;65.15
45763;BME280;37512;52.408;13.356;2022-08-05T06:10:18;100678.09;;;24.34;66.19
45763;BME280;37512;52.408;13.356;2022-08-05T06:14:24;100693.75;;;24.04;68.80
45763;BME280;37512;52.408;13.356;2022-08-05T06:18:28;100719.47;;;23.62;71.49
45763;BME280;37512;52.408;13.356;2022-08-05T06:22:33;100723.75;;;23.53;72.58
45763;BME280;37512;52.408;13.356;2022-08-05T06:26:34;100734.97;;;23.44;73.00
45763;BME280;37512;52.408;13.356;2022-08-05T06:30:36;100706.00;;;23.40;73.34
45763;BME280;37512;52.408;13.356;2022-08-05T06:34:38;100696.84;;;23.36;74.45
45763;BME280;37512;52.408;13.356;2022-08-05T06:38:41;100682.72;;;23.71;72.59
45763;BME280;37512;52.408;13.356;2022-08-05T06:42:49;100688.16;;;24.13;70.81
45763;BME280;37512;52.408;13.356;2022-08-05T06:46:52;100691.31;;;23.93;72.11
45763;BME280;37512;52.408;13.356;2022-08-05T06:50:54;100694.47;;;23.95;71.97
45763;BME280;37512;52.408;13.356;2022-08-05T06:54:56;100692.31;;;24.21;71.10
45763;BME280;37512;52.408;13.356;2022-08-05T06:58:58;100681.66;;;24.69;69.62
45763;BME280;37512;52.408;13.356;2022-08-05T07:03:00;100686.50;;;24.91;69.16
45763;BME280;37512;52.408;13.356;2022-08-05T07:07:02;100691.81;;;24.79;68.61
45763;BME280;37512;52.408;13.356;2022-08-05T07:11:08;100704.03;;;24.98;67.77
45763;BME280;37512;52.408;13.356;2022-08-05T07:15:16;100707.53;;;25.43;66.85
45763;BME280;37512;52.408;13.356;2022-08-05T07:19:55;100736.13;;;25.39;65.61
45763;BME280;37512;52.408;13.356;2022-08-05T07:24:17;100741.41;;;24.97;66.66
45763;BME280;37512;52.408;13.356;2022-08-05T07:28:21;100733.59;;;25.10;66.59
45763;BME280;37512;52.408;13.356;2022-08-05T07:32:22;100730.94;;;25.16;66.24
45763;BME280;37512;52.408;13.356;2022-08-05T07:36:26;100736.94;;;24.87;67.57
45763;BME280;37512;52.408;13.356;2022-08-05T07:40:28;100738.44;;;25.00;67.03
45763;BME280;37512;52.408;13.356;2022-08-05T07:44:33;100729.38;;;24.93;67.31
45763;BME280;37512;52.408;13.356;2022-08-05T07:48:36;100739.34;;;24.66;67.62
45763;BME280;37512;52.408;13.356;2022-08-05T07:52:57;100722.88;;;24.83;68.05
45763;BME280;37512;52.408;13.356;2022-08-05T07:57:03;100705.13;;;24.70;68.24
45763;BME280;37512;52.408;13.356;2022-08-05T08:01:25;100728.50;;;24.52;68.71
45763;BME280;37512;52.408;13.356;2022-08-05T08:05:30;100728.91;;;24.63;68.60
45763;BME280;37512;52.408;13.356;2022-08-05T08:09:39;100724.81;;;24.64;70.07
45763;BME280;37512;52.408;13.356;2022-08-05T08:13:44;100716.09;;;24.58;72.74
45763;BME280;37512;52.408;13.356;2022-08-05T08:18:02;100709.63;;;24.58;71.07
45763;BME280;37512;52.408;13.356;2022-08-05T08:22:08;100679.50;;;24.51;68.47
45763;BME280;37512;52.408;13.356;2022-08-05T08:26:16;100684.16;;;24.67;68.35
45763;BME280;37512;52.408;13.356;2022-08-05T08:30:29;100710.81;;;24.70;68.46
45763;BME280;37512;52.408;13.356;2022-08-05T08:34:47;100735.44;;;24.16;68.77
45763;BME280;37512;52.408;13.356;2022-08-05T08:38:48;100759.31;;;24.40;68.88
45763;BME280;37512;52.408;13.356;2022-08-05T08:42:53;100769.03;;;24.39;67.78
45763;BME280;37512;52.408;13.356;2022-08-05T08:46:57;100723.03;;;24.57;67.63
45763;BME280;37512;52.408;13.356;2022-08-05T08:51:01;100749.53;;;24.41;69.22
45763;BME280;37512;52.408;13.356;2022-08-05T08:55:23;100784.16;;;24.36;72.06
45763;BME280;37512;52.408;13.356;2022-08-05T08:59:45;100777.13;;;23.80;73.57
45763;BME280;37512;52.408;13.356;2022-08-05T09:03:50;100771.00;;;23.95;74.41
45763;BME280;37512;52.408;13.356;2022-08-05T09:07:57;100778.69;;;23.94;73.93
45763;BME280;37512;52.408;13.356;2022-08-05T09:12:01;100788.41;;;24.19;72.46
45763;BME280;37512;52.408;13.356;2022-08-05T09:16:21;100805.91;;;24.05;72.71
45763;BME280;37512;52.408;13.356;2022-08-05T09:20:27;100806.75;;;24.27;72.10
45763;BME280;37512;52.408;13.356;2022-08-05T09:24:38;100804.91;;;24.33;71.57
45763;BME280;37512;52.408;13.356;2022-08-05T09:28:40;100818.25;;;24.58;71.75
45763;BME280;37512;52.408;13.356;2022-08-05T09:32:41;100822.81;;;24.78;69.76
45763;BME280;37512;52.408;13.356;2022-08-05T09:36:50;100813.19;;;24.75;68.96
45763;BME280;37512;52.408;13.356;2022-08-05T09:41:00;100810.41;;;24.84;69.28
45763;BME280;37512;52.408;13.356;2022-08-05T09:45:07;100814.03;;;24.63;68.50
45763;BME280;37512;52.408;13.356;2022-08-05T09:49:29;100777.28;;;24.81;69.77
45763;BME280;37512;52.408;13.356;2022-08-05T09:53:51;100760.72;;;24.80;68.35
45763;BME280;37512;52.408;13.356;2022-08-05T09:58:12;100754.59;;;24.81;69.25
45763;BME280;37512;52.408;13.356;2022-08-05T10:02:29;100751.88;;;24.56;69.55
45763;BME280;37512;52.408;13.356;2022-08-05T10:06:32;100745.75;;;24.45;74.47
45763;BME280;37512;52.408;13.356;2022-08-05T10:10:47;100711.09;;;24.40;77.78
45763;BME280;37512;52.408;13.356;2022-08-05T10:15:12;100743.25;;;23.77;78.68
45763;BME280;37512;52.408;13.356;2022-08-05T10:19:18;100765.81;;;23.68;78.66
45763;BME280;37512;52.408;13.356;2022-08-05T10:23:39;100756.50;;;23.93;77.82
45763;BME280;37512;52.408;13.356;2022-08-05T10:28:00;100793.97;;;24.10;78.51
45763;BME280;37512;52.408;13.356;2022-08-05T10:32:17;100843.44;;;24.09;76.70
45763;BME280;37512;52.408;13.356;2022-08-05T10:36:40;100840.75;;;23.12;83.22
45763;BME280;37512;52.408;13.356;2022-08-05T10:44:58;100793.44;;;23.51;89.11
45763;BME280;37512;52.408;13.356;2022-08-05T10:49:06;100799.81;;;23.68;98.08
45763;BME280;37512;52.408;13.356;2022-08-05T10:57:39;100808.41;;;23.64;98.39
45763;BME280;37512;52.408;13.356;2022-08-05T11:01:46;100779.53;;;23.56;100.00
45763;BME280;37512;52.408;13.356;2022-08-05T11:06:12;100763.53;;;23.88;100.00
45763;BME280;37512;52.408;13.356;2022-08-05T11:10:24;100767.94;;;23.89;100.00
45763;BME280;37512;52.408;13.356;2022-08-05T11:14:30;100765.69;;;25.20;89.44
45763;BME280;37512;52.408;13.356;2022-08-05T11:19:28;100805.91;;;25.50;80.02
45763;BME280;37512;52.408;13.356;2022-08-05T11:23:51;100807.59;;;25.69;84.98
45763;BME280;37512;52.408;13.356;2022-08-05T11:32:22;100813.28;;;26.46;67.25
45763;BME280;37512;52.408;13.356;2022-08-05T11:45:46;100833.53;;;26.39;65.91
45763;BME280;37512;52.408;13.356;2022-08-05T11:50:08;100814.88;;;26.38;62.67
45763;BME280;37512;52.408;13.356;2022-08-05T11:54:23;100819.41;;;28.28;61.56
45763;BME280;37512;52.408;13.356;2022-08-05T11:58:39;100820.59;;;27.97;59.79
45763;BME280;37512;52.408;13.356;2022-08-05T12:02:53;100823.66;;;27.84;57.52
45763;BME280;37512;52.408;13.356;2022-08-05T12:06:58;100824.00;;;27.25;60.19
45763;BME280;37512;52.408;13.356;2022-08-05T12:11:03;100817.28;;;27.89;56.96
45763;BME280;37512;52.408;13.356;2022-08-05T12:15:06;100822.72;;;28.35;56.52
45763;BME280;37512;52.408;13.356;2022-08-05T12:19:18;100827.94;;;29.15;55.51
45763;BME280;37512;52.408;13.356;2022-08-05T12:23:55;100827.69;;;29.48;53.71
45763;BME280;37512;52.408;13.356;2022-08-05T12:28:00;100826.41;;;29.64;52.74
45763;BME280;37512;52.408;13.356;2022-08-05T12:32:04;100823.38;;;30.64;49.80
45763;BME280;37512;52.408;13.356;2022-08-05T12:36:08;100808.72;;;30.36;47.28
45763;BME280;37512;52.408;13.356;2022-08-05T12:40:10;100814.72;;;31.05;47.24
45763;BME280;37512;52.408;13.356;2022-08-05T12:44:26;100815.78;;;30.00;47.20
45763;BME280;37512;52.408;13.356;2022-08-05T12:48:37;100817.63;;;30.85;47.68
45763;BME280;37512;52.408;13.356;2022-08-05T12:52:40;100820.56;;;31.17;46.95
45763;BME280;37512;52.408;13.356;2022-08-05T12:56:46;100820.91;;;31.56;44.95
45763;BME280;37512;52.408;13.356;2022-08-05T13:00:51;100824.22;;;30.09;47.18
45763;BME280;37512;52.408;13.356;2022-08-05T13:05:12;100819.63;;;31.31;45.21
45763;BME280;37512;52.408;13.356;2022-08-05T13:09:15;100814.06;;;31.22;44.28
45763;BME280;37512;52.408;13.356;2022-08-05T13:13:29;100815.78;;;31.08;44.85
45763;BME280;37512;52.408;13.356;2022-08-05T13:17:53;100820.03;;;31.44;44.52
45763;BME280;37512;52.408;13.356;2022-08-05T13:21:59;100822.09;;;30.04;46.81
45763;BME280;37512;52.408;13.356;2022-08-05T13:26:03;100817.88;;;30.20;47.62
45763;BME280;37512;52.408;13.356;2022-08-05T13:30:09;100826.19;;;28.40;51.87
45763;BME280;37512;52.408;13.356;2022-08-05T13:34:31;100821.47;;;29.79;49.07
45763;BME280;37512;52.408;13.356;2022-08-05T13:38:32;100819.56;;;30.73;47.38
45763;BME280;37512;52.408;13.356;2022-08-05T13:42:38;100816.59;;;29.35;49.43
45763;BME280;37512;52.408;13.356;2022-08-05T13:46:41;100824.72;;;28.44;52.59
45763;BME280;37512;52.408;13.356;2022-08-05T13:51:11;100816.88;;;27.72;53.05
45763;BME280;37512;52.408;13.356;2022-08-05T13:55:14;100833.34;;;27.68;53.73
45763;BME280;37512;52.408;13.356;2022-08-05T13:59:40;100824.31;;;27.27;54.92
45763;BME280;37512;52.408;13.356;2022-08-05T14:03:59;100820.97;;;27.81;54.62
45763;BME280;37512;52.408;13.356;2022-08-05T14:08:20;100830.25;;;28.24;52.39
45763;BME280;37512;52.408;13.356;2022-08-05T14:12:32;100832.16;;;27.93;52.89
45763;BME280;37512;52.408;13.356;2022-08-05T14:16:34;100829.59;;;27.62;53.91
45763;BME280;37512;52.408;13.356;2022-08-05T14:20:35;100826.53;;;27.32;55.45
45763;BME280;37512;52.408;13.356;2022-08-05T14:24:37;100834.47;;;27.19;55.29
45763;BME280;37512;52.408;13.356;2022-08-05T14:28:40;100832.41;;;27.10;56.29
45763;BME280;37512;52.408;13.356;2022-08-05T14:32:53;100848.56;;;27.04;56.75
45763;BME280;37512;52.408;13.356;2022-08-05T14:36:56;100856.97;;;26.89;56.75
45763;BME280;37512;52.408;13.356;2022-08-05T14:41:00;100851.28;;;26.71;57.97
45763;BME280;37512;52.408;13.356;2022-08-05T14:45:06;100860.75;;;26.96;57.88
45763;BME280;37512;52.408;13.356;2022-08-05T14:49:09;100859.94;;;27.04;57.32
45763;BME280;37512;52.408;13.356;2022-08-05T14:53:10;100857.41;;;27.77;55.64
45763;BME280;37512;52.408;13.356;2022-08-05T14:57:13;100854.34;;;28.23;55.45
45763;BME280;37512;52.408;13.356;2022-08-05T15:01:18;100850.78;;;26.63;59.53
45763;BME280;37512;52.408;13.356;2022-08-05T15:05:40;100841.72;;;26.19;61.11
45763;BME280;37512;52.408;13.356;2022-08-05T15:10:01;100844.25;;;26.26;62.66
45763;BME280;37512;52.408;13.356;2022-08-05T15:14:03;100838.84;;;26.10;62.84
45763;BME280;37512;52.408;13.356;2022-08-05T15:18:05;100845.34;;;26.19;62.33
45763;BME280;37512;52.408;13.356;2022-08-05T15:22:06;100851.34;;;26.21;62.56
45763;BME280;37512;52.408;13.356;2022-08-05T15:26:09;100838.88;;;26.19;64.04
45763;BME280;37512;52.408;13.356;2022-08-05T15:30:11;100854.16;;;26.03;64.92
45763;BME280;37512;52.408;13.356;2022-08-05T15:34:16;100863.56;;;25.50;65.74
45763;BME280;37512;52.408;13.356;2022-08-05T15:38:33;100876.59;;;25.70;65.62
45763;BME280;37512;52.408;13.356;2022-08-05T15:42:42;100873.34;;;25.27;68.06
45763;BME280;37512;52.408;13.356;2022-08-05T15:46:59;100894.94;;;25.24;69.02
45763;BME280;37512;52.408;13.356;2022-08-05T15:51:01;100894.38;;;24.95;70.15
45763;BME280;37512;52.408;13.356;2022-08-05T15:55:09;100899.72;;;24.71;71.77
45763;BME280;37512;52.408;13.356;2022-08-05T15:59:16;100879.06;;;24.92;71.15
45763;BME280;37512;52.408;13.356;2022-08-05T16:03:22;100907.13;;;24.55;72.85
45763;BME280;37512;52.408;13.356;2022-08-05T16:07:24;100913.25;;;24.54;73.28
45763;BME280;37512;52.408;13.356;2022-08-05T16:11:30;100921.63;;;24.45;74.07
45763;BME280;37512;52.408;13.356;2022-08-05T16:15:43;100926.31;;;24.13;74.15
45763;BME280;37512;52.408;13.356;2022-08-05T16:19:47;100922.56;;;24.41;72.61
45763;BME280;37512;52.408;13.356;2022-08-05T16:24:09;100931.78;;;24.20;71.13
45763;BME280;37512;52.408;13.356;2022-08-05T16:28:30;100947.75;;;24.39;71.19
45763;BME280;37512;52.408;13.356;2022-08-05T16:32:32;100945.84;;;24.11;71.44
45763;BME280;37512;52.408;13.356;2022-08-05T16:36:34;100962.63;;;24.18;71.70
45763;BME280;37512;52.408;13.356;2022-08-05T16:40:43;100994.72;;;24.02;71.99
45763;BME280;37512;52.408;13.356;2022-08-05T16:44:55;100990.34;;;23.43;76.70
45763;BME280;37512;52.408;13.356;2022-08-05T16:48:57;100984.97;;;23.74;76.41
45763;BME280;37512;52.408;13.356;2022-08-05T16:52:59;100985.19;;;24.09;75.69
45763;BME280;37512;52.408;13.356;2022-08-05T16:57:13;100998.69;;;24.69;72.04
45763;BME280;37512;52.408;13.356;2022-08-05T17:01:22;100999.16;;;25.02;70.50
45763;BME280;37512;52.408;13.356;2022-08-05T17:05:24;101001.88;;;24.58;71.87
45763;BME280;37512;52.408;13.356;2022-08-05T17:09:28;101017.00;;;23.45;74.63
45763;BME280;37512;52.408;13.356;2022-08-05T17:13:30;101032.00;;;22.64;78.54
45763;BME280;37512;52.408;13.356;2022-08-05T17:17:41;101049.53;;;22.02;81.56
45763;BME280;37512;52.408;13.356;2022-08-05T17:21:44;101066.88;;;22.21;81.84
45763;BME280;37512;52.408;13.356;2022-08-05T17:25:51;101071.06;;;21.76;83.11
45763;BME280;37512;52.408;13.356;2022-08-05T17:29:53;101073.53;;;21.74;82.83
45763;BME280;37512;52.408;13.356;2022-08-05T17:34:02;101092.94;;;21.72;81.35
45763;BME280;37512;52.408;13.356;2022-08-05T17:38:05;101092.34;;;21.61;81.23
45763;BME280;37512;52.408;13.356;2022-08-05T17:42:08;101098.63;;;20.98;82.01
45763;BME280;37512;52.408;13.356;2022-08-05T17:46:23;101106.44;;;20.90;80.35
45763;BME280;37512;52.408;13.356;2022-08-05T17:50:26;101119.78;;;20.86;78.78
45763;BME280;37512;52.408;13.356;2022-08-05T17:54:31;101123.31;;;20.66;77.14
45763;BME280;37512;52.408;13.356;2022-08-05T17:58:34;101129.38;;;20.65;76.30
45763;BME280;37512;52.408;13.356;2022-08-05T18:02:37;101134.22;;;20.92;73.96
45763;BME280;37512;52.408;13.356;2022-08-05T18:06:39;101131.22;;;20.75;72.88
45763;BME280;37512;52.408;13.356;2022-08-05T18:10:46;101127.50;;;20.82;73.24
45763;BME280;37512;52.408;13.356;2022-08-05T18:14:48;101138.78;;;20.82;73.47
45763;BME280;37512;52.408;13.356;2022-08-05T18:18:51;101150.81;;;20.86;73.50
45763;BME280;37512;52.408;13.356;2022-08-05T18:22:53;101170.28;;;20.77;74.22
45763;BME280;37512;52.408;13.356;2022-08-05T18:26:57;101160.19;;;20.48;75.87
45763;BME280;37512;52.408;13.356;2022-08-05T18:30:59;101176.19;;;20.59;75.32
45763;BME280;37512;52.408;13.356;2022-08-05T18:35:01;101193.09;;;20.59;74.92
45763;BME280;37512;52.408;13.356;2022-08-05T18:39:05;101188.09;;;20.39;75.90
45763;BME280;37512;52.408;13.356;2022-08-05T18:43:27;101187.63;;;20.44;75.21
45763;BME280;37512;52.408;13.356;2022-08-05T18:47:38;101202.38;;;20.21;74.48
45763;BME280;37512;52.408;13.356;2022-08-05T18:51:40;101217.38;;;19.73;76.04
45763;BME280;37512;52.408;13.356;2022-08-05T18:56:07;101207.81;;;19.60;76.11
45763;BME280;37512;52.408;13.356;2022-08-05T19:00:13;101223.75;;;19.77;75.39
45763;BME280;37512;52.408;13.356;2022-08-05T19:04:21;101231.91;;;20.10;74.34
45763;BME280;37512;52.408;13.356;2022-08-05T19:08:24;101217.63;;;19.90;75.10
45763;BME280;37512;52.408;13.356;2022-08-05T19:12:31;101233.59;;;19.55;75.97
45763;BME280;37512;52.408;13.356;2022-08-05T19:16:34;101247.47;;;19.24;75.66
45763;BME280;37512;52.408;13.356;2022-08-05T19:20:48;101253.16;;;19.17;73.67
45763;BME280;37512;52.408;13.356;2022-08-05T19:24:51;101273.03;;;18.74;73.62
45763;BME280;37512;52.408;13.356;2022-08-05T19:28:56;101262.69;;;19.34;71.71
45763;BME280;37512;52.408;13.356;2022-08-05T19:32:58;101264.44;;;19.10;71.14
45763;BME280;37512;52.408;13.356;2022-08-05T19:36:59;101265.25;;;19.14;68.68
45763;BME280;37512;52.408;13.356;2022-08-05T19:41:02;101280.06;;;19.18;68.17
45763;BME280;37512;52.408;13.356;2022-08-05T19:45:08;101289.06;;;18.91;67.23
45763;BME280;37512;52.408;13.356;2022-08-05T19:49:14;101299.00;;;19.14;66.85
45763;BME280;37512;52.408;13.356;2022-08-05T19:53:17;101304.66;;;19.03;66.18
45763;BME280;37512;52.408;13.356;2022-08-05T19:57:39;101305.88;;;19.02;66.12
45763;BME280;37512;52.408;13.356;2022-08-05T20:02:01;101307.03;;;19.12;65.07
45763;BME280;37512;52.408;13.356;2022-08-05T20:06:03;101308.72;;;18.95;65.16
45763;BME280;37512;52.408;13.356;2022-08-05T20:10:16;101310.38;;;18.89;65.74
45763;BME280;37512;52.408;13.356;2022-08-05T20:14:23;101316.78;;;18.89;65.33
45763;BME280;37512;52.408;13.356;2022-08-05T20:18:27;101317.97;;;18.88;65.92
45763;BME280;37512;52.408;13.356;2022-08-05T20:22:36;101317.22;;;18.84;66.18
45763;BME280;37512;52.408;13.356;2022-08-05T20:26:41;101322.84;;;18.84;65.89
45763;BME280;37512;52.408;13.356;2022-08-05T20:30:43;101332.91;;;18.71;66.88
45763;BME280;37512;52.408;13.356;2022-08-05T20:34:45;101353.78;;;18.70;68.25
45763;BME280;37512;52.408;13.356;2022-08-05T20:38:48;101363.41;;;18.72;67.66
45763;BME280;37512;52.408;13.356;2022-08-05T20:42:58;101369.06;;;18.62;68.41
45763;BME280;37512;52.408;13.356;2022-08-05T20:47:03;101384.31;;;18.75;68.13
45763;BME280;37512;52.408;13.356;2022-08-05T20:51:07;101391.16;;;18.49;69.94
45763;BME280;37512;52.408;13.356;2022-08-05T20:55:09;101395.16;;;18.73;69.87
45763;BME280;37512;52.408;13.356;2022-08-05T20:59:32;101406.00;;;18.71;70.35
45763;BME280;37512;52.408;13.356;2022-08-05T21:03:53;101422.47;;;18.62;70.83
45763;BME280;37512;52.408;13.356;2022-08-05T21:07:55;101428.91;;;18.44;71.87
45763;BME280;37512;52.408;13.356;2022-08-05T21:12:00;101426.09;;;18.58;72.29
45763;BME280;37512;52.408;13.356;2022-08-05T21:16:11;101422.06;;;18.70;72.54
45763;BME280;37512;52.408;13.356;2022-08-05T21:20:13;101436.91;;;18.56;72.95
45763;BME280;37512;52.408;13.356;2022-08-05T21:24:33;101444.16;;;18.29;74.87
45763;BME280;37512;52.408;13.356;2022-08-05T21:28:34;101430.09;;;18.14;76.50
45763;BME280;37512;52.408;13.356;2022-08-05T21:32:38;101439.75;;;18.28;75.78
45763;BME280;37512;52.408;13.356;2022-08-05T21:36:43;101442.50;;;17.85;77.36
45763;BME280;37512;52.408;13.356;2022-08-05T21:40:49;101442.97;;;18.19;76.37
45763;BME280;37512;52.408;13.356;2022-08-05T21:44:50;101435.31;;;17.98;77.59
45763;BME280;37512;52.408;13.356;2022-08-05T21:48:52;101439.72;;;17.99;77.81
45763;BME280;37512;52.408;13.356;2022-08-05T21:52:57;101450.50;;;17.83;79.03
45763;BME280;37512;52.408;13.356;2022-08-05T21:57:05;101462.91;;;17.78;80.13